createdAt,value
2022-08-17T00:00:34.388Z,50.97
2022-08-17T00:03:06.189Z,52.50
2022-08-17T00:05:35.133Z,50.67
2022-08-17T00:08:03.555Z,50.80
2022-08-17T00:10:32.463Z,49.83
2022-08-17T00:13:00.939Z,51.00
2022-08-17T00:15:29.374Z,52.27
2022-08-17T00:17:57.783Z,52.27
2022-08-17T00:20:30.706Z,51.30
2022-08-17T00:23:07.230Z,50.97
2022-08-17T00:25:35.759Z,52.60
2022-08-17T00:28:04.274Z,50.47
2022-08-17T00:30:53.011Z,51.00
2022-08-17T00:33:21.562Z,50.87
2022-08-17T00:35:51.390Z,51.43
2022-08-17T00:38:19.830Z,50.23
2022-08-17T00:40:48.692Z,50.50
2022-08-17T00:43:17.898Z,50.20
2022-08-17T00:45:46.309Z,49.60
2022-08-17T00:48:26.171Z,47.87
2022-08-17T00:50:59.960Z,49.10
2022-08-17T00:53:28.698Z,49.97
2022-08-17T00:55:57.120Z,49.00
2022-08-17T00:58:33.008Z,48.70
2022-08-17T01:01:05.566Z,48.77
2022-08-17T01:03:34.047Z,49.73
2022-08-17T01:06:04.469Z,53.80
2022-08-17T01:08:33.031Z,52.93
2022-08-17T01:11:02.710Z,53.83
2022-08-17T01:13:36.738Z,53.03
2022-08-17T01:16:10.572Z,51.37
2022-08-17T01:18:38.975Z,51.63
2022-08-17T01:21:09.425Z,56.73
2022-08-17T01:23:39.918Z,55.37
2022-08-17T01:26:08.616Z,55.23
2022-08-17T01:28:54.926Z,53.63
2022-08-17T01:31:24.637Z,53.30
2022-08-17T01:33:53.316Z,54.40
2022-08-17T01:36:21.791Z,36.20
2022-08-17T01:38:51.518Z,33.77
2022-08-17T01:41:19.988Z,34.77
2022-08-17T01:43:49.691Z,37.10
2022-08-17T01:46:18.473Z,39.87
2022-08-17T01:48:47.507Z,41.60
2022-08-17T01:51:16.564Z,42.33
2022-08-17T01:53:46.467Z,45.37
2022-08-17T01:56:16.523Z,45.70
2022-08-17T01:58:44.890Z,45.73
2022-08-17T02:01:14.762Z,45.53
2022-08-17T02:03:56.223Z,46.13
2022-08-17T02:06:29.521Z,47.17
2022-08-17T02:09:02.566Z,43.47
2022-08-17T02:11:33.229Z,46.67
2022-08-17T02:14:02.887Z,45.47
2022-08-17T02:16:37.323Z,45.70
2022-08-17T02:19:06.803Z,46.23
2022-08-17T02:21:35.175Z,45.47
2022-08-17T02:24:03.488Z,43.73
2022-08-17T02:26:33.201Z,37.57
2022-08-17T02:29:01.696Z,37.27
2022-08-17T02:31:31.073Z,37.67
2022-08-17T02:34:04.175Z,36.43
2022-08-17T02:36:33.816Z,34.03
2022-08-17T02:39:02.657Z,34.57
2022-08-17T02:41:30.995Z,33.80
2022-08-17T02:44:00.721Z,36.10
2022-08-17T02:46:29.146Z,35.07
2022-08-17T02:48:57.663Z,34.67
2022-08-17T02:51:26.027Z,32.57
2022-08-17T02:54:39.009Z,32.17
2022-08-17T02:56:42.659Z,30.73
2022-08-17T02:59:12.523Z,29.07
2022-08-17T03:01:40.886Z,29.03
2022-08-17T03:04:09.298Z,27.10
2022-08-17T03:06:37.841Z,24.50
2022-08-17T03:09:06.273Z,25.20
2022-08-17T03:11:35.055Z,24.40
2022-08-17T03:14:03.411Z,23.40
2022-08-17T03:16:33.149Z,22.60
2022-08-17T03:19:03.012Z,22.47
2022-08-17T03:21:31.418Z,20.27
2022-08-17T03:23:59.743Z,20.13
2022-08-17T03:26:29.769Z,20.80
2022-08-17T03:28:58.301Z,18.93
2022-08-17T03:31:26.655Z,18.80
2022-08-17T03:33:56.456Z,17.73
2022-08-17T03:36:24.905Z,17.70
2022-08-17T03:38:53.202Z,16.43
2022-08-17T03:41:23.340Z,16.83
2022-08-17T03:43:51.623Z,16.10
2022-08-17T03:46:37.666Z,15.67
2022-08-17T03:49:25.446Z,15.83
2022-08-17T03:52:11.334Z,16.80
2022-08-17T03:54:57.347Z,15.53
2022-08-17T03:57:25.826Z,15.67
2022-08-17T03:59:54.362Z,13.70
2022-08-17T04:02:23.515Z,13.67
2022-08-17T04:04:53.856Z,13.40
2022-08-17T04:07:22.800Z,12.93
2022-08-17T04:09:51.131Z,13.27
2022-08-17T04:12:19.851Z,12.97
2022-08-17T04:14:53.504Z,13.30
2022-08-17T04:17:23.070Z,12.50
2022-08-17T04:19:53.056Z,13.20
2022-08-17T04:22:32.539Z,13.23
2022-08-17T04:25:06.967Z,13.60
2022-08-17T04:27:35.301Z,12.80
2022-08-17T04:30:03.889Z,13.20
2022-08-17T04:33:04.290Z,13.70
2022-08-17T04:35:23.692Z,13.93
2022-08-17T04:37:52.010Z,14.40
2022-08-17T04:40:38.338Z,14.87
2022-08-17T04:43:07.485Z,16.53
2022-08-17T04:45:35.776Z,16.40
2022-08-17T04:48:04.436Z,17.10
2022-08-17T04:50:34.113Z,18.00
2022-08-17T04:53:02.430Z,19.33
2022-08-17T04:55:31.351Z,18.63
2022-08-17T04:57:59.767Z,19.67
2022-08-17T05:00:28.129Z,21.07
2022-08-17T05:02:56.703Z,21.60
2022-08-17T05:05:26.278Z,22.27
2022-08-17T05:07:56.196Z,23.37
2022-08-17T05:10:24.567Z,23.50
2022-08-17T05:12:59.187Z,25.00
2022-08-17T05:15:27.961Z,24.97
2022-08-17T05:17:56.318Z,26.53
2022-08-17T05:20:24.833Z,27.23
2022-08-17T05:22:53.387Z,27.97
2022-08-17T05:25:25.780Z,28.90
2022-08-17T05:27:54.352Z,28.37
2022-08-17T05:30:22.744Z,28.17
2022-08-17T05:32:54.734Z,28.33
2022-08-17T05:35:26.239Z,26.90
2022-08-17T05:37:54.843Z,26.43
2022-08-17T05:40:27.325Z,25.33
2022-08-17T05:43:08.018Z,24.97
2022-08-17T05:45:55.872Z,25.43
2022-08-17T05:48:39.429Z,24.40
2022-08-17T05:51:27.147Z,26.13
2022-08-17T05:53:58.547Z,23.27
2022-08-17T05:56:30.849Z,24.33
2022-08-17T05:59:00.466Z,25.30
2022-08-17T06:01:31.698Z,25.77
2022-08-17T06:04:02.746Z,25.73
2022-08-17T06:06:33.802Z,26.13
2022-08-17T06:09:13.970Z,26.77
2022-08-17T06:11:45.564Z,26.73
2022-08-17T06:14:20.801Z,26.93
2022-08-17T06:16:49.925Z,26.83
2022-08-17T06:19:19.195Z,26.60
2022-08-17T06:21:48.505Z,27.83
2022-08-17T06:24:35.300Z,27.77
2022-08-17T06:27:08.108Z,27.73
2022-08-17T06:29:39.647Z,26.53
2022-08-17T06:32:09.555Z,26.67
2022-08-17T06:34:41.068Z,26.80
2022-08-17T06:37:10.954Z,26.53
2022-08-17T06:39:42.024Z,25.87
2022-08-17T06:42:54.146Z,26.87
2022-08-17T06:45:05.306Z,26.00
2022-08-17T06:47:39.351Z,25.13
2022-08-17T06:50:10.226Z,24.70
2022-08-17T06:52:46.977Z,24.33
2022-08-17T06:55:18.784Z,23.23
2022-08-17T06:57:50.005Z,23.83
2022-08-17T07:00:18.708Z,26.23
2022-08-17T07:02:51.268Z,30.30
2022-08-17T07:05:33.028Z,24.90
2022-08-17T07:08:02.549Z,22.27
2022-08-17T07:10:31.766Z,26.90
2022-08-17T07:13:13.911Z,26.17
2022-08-17T07:15:43.416Z,23.07
2022-08-17T07:18:11.723Z,23.13
2022-08-17T07:20:40.313Z,22.80
2022-08-17T07:23:09.696Z,21.27
2022-08-17T07:25:38.195Z,29.67
2022-08-17T07:28:08.692Z,23.77
2022-08-17T07:30:45.653Z,22.80
2022-08-17T07:33:17.859Z,23.80
2022-08-17T07:35:48.307Z,23.23
2022-08-17T07:38:25.370Z,23.40
2022-08-17T07:41:02.631Z,23.93
2022-08-17T07:43:32.907Z,25.07
2022-08-17T07:46:22.713Z,25.13
2022-08-17T07:48:51.681Z,27.67
2022-08-17T07:51:25.132Z,27.70
2022-08-17T07:53:53.905Z,27.97
2022-08-17T07:56:44.114Z,27.53
2022-08-17T07:59:15.667Z,26.60
2022-08-17T08:01:46.352Z,28.40
2022-08-17T08:04:23.275Z,28.83
2022-08-17T08:07:08.893Z,28.43
2022-08-17T08:09:39.543Z,29.17
2022-08-17T08:12:23.889Z,28.87
2022-08-17T08:15:13.442Z,28.83
2022-08-17T08:17:47.886Z,28.37
2022-08-17T08:20:37.536Z,28.50
2022-08-17T08:23:05.315Z,28.20
2022-08-17T08:25:38.675Z,28.70
2022-08-17T08:28:20.465Z,27.40
2022-08-17T08:30:51.200Z,26.17
2022-08-17T08:33:23.045Z,26.30
2022-08-17T08:35:56.833Z,27.67
2022-08-17T08:38:28.721Z,29.87
2022-08-17T08:41:07.809Z,27.93
2022-08-17T08:43:40.661Z,25.37
2022-08-17T08:46:12.227Z,22.83
2022-08-17T08:48:58.100Z,24.53
2022-08-17T08:51:29.002Z,24.47
2022-08-17T08:54:00.573Z,24.47
2022-08-17T08:56:31.673Z,27.50
2022-08-17T08:59:02.863Z,26.47
2022-08-17T09:01:33.658Z,25.67
2022-08-17T09:04:23.197Z,24.07
2022-08-17T09:06:56.547Z,24.00
2022-08-17T09:09:25.632Z,26.67
2022-08-17T09:12:02.202Z,26.87
2022-08-17T09:14:43.057Z,27.43
2022-08-17T09:17:18.451Z,23.73
2022-08-17T09:19:48.392Z,23.63
2022-08-17T09:22:20.728Z,26.10
2022-08-17T09:24:49.992Z,28.27
2022-08-17T09:27:19.499Z,30.17
2022-08-17T09:29:49.999Z,30.53
2022-08-17T09:32:21.510Z,32.60
2022-08-17T09:34:52.624Z,33.53
2022-08-17T09:37:22.408Z,33.83
2022-08-17T09:39:53.391Z,33.50
2022-08-17T09:42:23.747Z,27.60
2022-08-17T09:44:53.986Z,28.23
2022-08-17T09:47:25.116Z,28.17
2022-08-17T09:49:54.970Z,28.03
2022-08-17T09:52:23.739Z,25.57
2022-08-17T09:54:52.498Z,25.67
2022-08-17T09:57:32.296Z,23.87
2022-08-17T10:00:09.941Z,23.87
2022-08-17T10:02:44.701Z,22.83
2022-08-17T10:05:14.827Z,18.53
2022-08-17T10:07:43.718Z,18.20
2022-08-17T10:10:14.294Z,17.27
2022-08-17T10:12:46.995Z,15.43
2022-08-17T10:15:22.506Z,14.30
2022-08-17T10:18:07.687Z,13.37
2022-08-17T10:20:38.352Z,13.63
2022-08-17T10:23:26.367Z,13.83
2022-08-17T10:26:09.225Z,14.10
2022-08-17T10:28:39.346Z,13.93
2022-08-17T10:31:33.849Z,13.80
2022-08-17T10:34:09.383Z,13.53
2022-08-17T10:36:39.919Z,14.67
2022-08-17T10:39:09.671Z,13.47
2022-08-17T10:41:41.393Z,13.77
2022-08-17T10:44:38.902Z,14.03
2022-08-17T10:47:04.950Z,14.83
2022-08-17T10:49:36.234Z,15.83
2022-08-17T10:52:05.789Z,16.97
2022-08-17T10:54:54.882Z,18.03
2022-08-17T10:57:44.930Z,18.37
2022-08-17T11:00:15.957Z,18.87
2022-08-17T11:02:49.600Z,18.67
2022-08-17T11:05:38.997Z,18.80
2022-08-17T11:08:24.221Z,20.03
2022-08-17T11:10:56.556Z,19.87
2022-08-17T11:13:28.768Z,19.30
2022-08-17T11:16:00.643Z,19.97
2022-08-17T11:18:34.776Z,20.57
2022-08-17T11:21:18.541Z,20.30
2022-08-17T11:23:58.372Z,20.90
2022-08-17T11:26:27.584Z,21.47
2022-08-17T11:28:58.832Z,22.43
2022-08-17T11:31:38.049Z,21.93
2022-08-17T11:34:08.607Z,22.40
2022-08-17T11:36:42.432Z,22.57
2022-08-17T11:39:19.538Z,22.67
2022-08-17T11:41:50.036Z,21.60
2022-08-17T11:44:20.669Z,22.03
2022-08-17T11:47:12.511Z,20.80
2022-08-17T11:50:02.716Z,21.63
2022-08-17T11:52:38.345Z,20.97
2022-08-17T11:55:34.107Z,21.83
2022-08-17T11:58:01.470Z,21.83
2022-08-17T12:00:52.450Z,25.37
2022-08-17T12:03:22.431Z,26.13
2022-08-17T12:05:51.314Z,25.43
2022-08-17T12:08:20.386Z,27.10
2022-08-17T12:11:06.490Z,26.60
2022-08-17T12:13:39.473Z,27.03
2022-08-17T12:16:10.015Z,27.80
2022-08-17T12:18:39.856Z,29.17
2022-08-17T12:21:15.505Z,29.83
2022-08-17T12:23:48.937Z,31.23
2022-08-17T12:26:19.436Z,32.87
2022-08-17T12:28:49.528Z,33.50
2022-08-17T12:31:20.989Z,34.60
2022-08-17T12:33:49.896Z,33.67
2022-08-17T12:36:19.206Z,34.67
2022-08-17T12:38:51.959Z,36.27
2022-08-17T12:41:30.721Z,34.83
2022-08-17T12:44:02.402Z,35.23
2022-08-17T12:46:33.642Z,35.43
2022-08-17T12:49:23.726Z,34.87
2022-08-17T12:51:53.155Z,34.60
2022-08-17T12:54:23.621Z,33.80
2022-08-17T12:56:52.077Z,33.57
2022-08-17T12:59:30.458Z,34.50
2022-08-17T13:01:59.212Z,34.50
2022-08-17T13:04:29.697Z,34.10
2022-08-17T13:07:00.053Z,33.33
2022-08-17T13:09:35.664Z,30.90
2022-08-17T13:12:09.088Z,30.87
2022-08-17T13:14:38.895Z,30.83
2022-08-17T13:17:11.288Z,29.43
2022-08-17T13:19:49.673Z,29.73
2022-08-17T13:22:18.349Z,29.53
2022-08-17T13:24:53.147Z,31.03
2022-08-17T13:27:21.777Z,30.30
2022-08-17T13:29:53.812Z,30.03
2022-08-17T13:32:23.133Z,30.03
2022-08-17T13:35:13.082Z,27.13
2022-08-17T13:37:42.618Z,26.17
2022-08-17T13:40:32.235Z,24.83
2022-08-17T13:43:03.299Z,23.57
2022-08-17T13:45:41.234Z,24.00
2022-08-17T13:48:13.770Z,24.67
2022-08-17T13:50:43.055Z,25.33
2022-08-17T13:53:18.111Z,26.23
2022-08-17T13:55:49.239Z,26.97
2022-08-17T13:58:21.567Z,28.23
2022-08-17T14:00:51.805Z,27.83
2022-08-17T14:03:20.741Z,28.80
2022-08-17T14:05:50.105Z,29.17
2022-08-17T14:08:18.838Z,29.80
2022-08-17T14:10:47.630Z,29.37
2022-08-17T14:13:16.265Z,29.93
2022-08-17T14:15:55.581Z,30.20
2022-08-17T14:18:31.247Z,30.37
2022-08-17T14:21:15.393Z,29.83
2022-08-17T14:23:49.046Z,30.77
2022-08-17T14:26:23.199Z,30.63
2022-08-17T14:28:54.717Z,30.50
2022-08-17T14:31:25.334Z,30.33
2022-08-17T14:33:55.300Z,30.00
2022-08-17T14:36:23.940Z,31.20
2022-08-17T14:38:52.351Z,30.97
2022-08-17T14:41:23.457Z,30.67
2022-08-17T14:43:52.993Z,30.00
2022-08-17T14:46:21.417Z,30.07
2022-08-17T14:48:57.152Z,30.00
2022-08-17T14:51:27.586Z,28.43
2022-08-17T14:53:57.164Z,29.40
2022-08-17T14:56:25.746Z,27.37
2022-08-17T14:58:54.180Z,28.77
2022-08-17T15:01:22.889Z,28.87
2022-08-17T15:03:51.488Z,28.60
2022-08-17T15:06:19.859Z,29.27
2022-08-17T15:08:49.532Z,28.40
2022-08-17T15:11:17.983Z,29.83
2022-08-17T15:13:52.020Z,29.73
2022-08-17T15:16:21.594Z,29.63
2022-08-17T15:18:50.209Z,28.93
2022-08-17T15:21:18.747Z,30.97
2022-08-17T15:23:47.807Z,30.50
2022-08-17T15:26:17.582Z,30.67
2022-08-17T15:28:48.990Z,30.07
2022-08-17T15:31:31.617Z,31.00
2022-08-17T15:34:00.538Z,30.83
2022-08-17T15:36:29.127Z,29.37
2022-08-17T15:38:58.849Z,28.87
2022-08-17T15:41:28.591Z,26.77
2022-08-17T15:43:57.138Z,25.70
2022-08-17T15:46:26.280Z,23.77
2022-08-17T15:48:58.266Z,21.63
2022-08-17T15:51:27.271Z,20.37
2022-08-17T15:53:56.240Z,19.57
2022-08-17T15:56:25.258Z,20.03
2022-08-17T15:58:55.252Z,20.97
2022-08-17T16:03:01.285Z,18.50
2022-08-17T16:04:26.438Z,19.10
2022-08-17T16:06:59.560Z,18.87
2022-08-17T16:09:28.048Z,19.63
2022-08-17T16:11:56.725Z,19.67
2022-08-17T16:14:32.297Z,18.77
2022-08-17T16:17:02.047Z,18.37
2022-08-17T16:19:31.427Z,18.23
2022-08-17T16:21:59.755Z,17.57
2022-08-17T16:24:28.947Z,18.93
2022-08-17T16:26:58.612Z,16.97
2022-08-17T16:29:28.788Z,18.30
2022-08-17T16:31:57.205Z,18.37
2022-08-17T16:34:25.964Z,18.37
2022-08-17T16:36:56.528Z,18.13
2022-08-17T16:39:26.175Z,18.33
2022-08-17T16:41:55.871Z,19.17
2022-08-17T16:44:24.809Z,18.50
2022-08-17T16:46:54.585Z,16.53
2022-08-17T16:49:36.217Z,18.10
2022-08-17T16:52:06.309Z,17.63
2022-08-17T16:54:35.235Z,16.40
2022-08-17T16:57:05.307Z,15.73
2022-08-17T16:59:42.071Z,16.90
2022-08-17T17:02:13.981Z,15.53
2022-08-17T17:04:43.499Z,15.57
2022-08-17T17:07:16.669Z,16.40
2022-08-17T17:09:46.502Z,16.17
2022-08-17T17:12:15.088Z,15.73
2022-08-17T17:14:44.086Z,15.83
2022-08-17T17:17:15.725Z,15.77
2022-08-17T17:19:46.655Z,16.03
2022-08-17T17:22:16.222Z,15.07
2022-08-17T17:24:50.054Z,14.83
2022-08-17T17:27:22.132Z,15.77
2022-08-17T17:29:53.879Z,14.27
2022-08-17T17:32:27.413Z,14.20
2022-08-17T17:34:56.795Z,14.77
2022-08-17T17:37:26.552Z,14.83
2022-08-17T17:39:55.692Z,15.90
2022-08-17T17:42:28.389Z,15.43
2022-08-17T17:45:07.465Z,15.60
2022-08-17T17:47:37.227Z,15.90
2022-08-17T17:50:06.190Z,16.73
2022-08-17T17:52:37.275Z,17.40
2022-08-17T17:55:07.834Z,18.80
2022-08-17T17:57:40.439Z,19.37
2022-08-17T18:00:09.648Z,19.20
2022-08-17T18:02:52.628Z,20.40
2022-08-17T18:05:34.106Z,20.03
2022-08-17T18:08:08.918Z,20.03
2022-08-17T18:10:40.800Z,18.57
2022-08-17T18:13:11.061Z,17.13
2022-08-17T18:15:42.660Z,16.37
2022-08-17T18:18:25.160Z,15.90
2022-08-17T18:20:56.271Z,14.83
2022-08-17T18:23:28.427Z,14.97
2022-08-17T18:26:01.883Z,13.37
2022-08-17T18:28:31.802Z,13.20
2022-08-17T18:31:11.580Z,13.53
2022-08-17T18:33:41.618Z,12.37
2022-08-17T18:36:10.980Z,12.27
2022-08-17T18:38:40.871Z,12.23
2022-08-17T18:41:19.149Z,11.57
2022-08-17T18:43:53.676Z,11.13
2022-08-17T18:46:28.241Z,11.67
2022-08-17T18:48:59.593Z,10.67
2022-08-17T18:51:42.427Z,9.97
2022-08-17T18:54:19.573Z,10.60
2022-08-17T18:56:51.992Z,10.13
2022-08-17T18:59:23.886Z,9.87
2022-08-17T19:02:32.543Z,10.70
2022-08-17T19:05:10.116Z,10.70
2022-08-17T19:07:39.513Z,10.53
2022-08-17T19:10:19.984Z,9.80
2022-08-17T19:12:49.697Z,10.67
2022-08-17T19:15:19.726Z,10.80
2022-08-17T19:17:50.067Z,11.27
2022-08-17T19:20:21.100Z,10.97
2022-08-17T19:22:58.882Z,10.03
2022-08-17T19:25:28.324Z,9.97
2022-08-17T19:28:00.097Z,10.90
2022-08-17T19:30:28.866Z,10.87
2022-08-17T19:33:05.833Z,10.67
2022-08-17T19:35:42.318Z,10.27
2022-08-17T19:38:13.611Z,10.60
2022-08-17T19:40:52.653Z,9.77
2022-08-17T19:43:31.091Z,9.77
2022-08-17T19:46:06.099Z,9.43
2022-08-17T19:48:40.022Z,9.97
2022-08-17T19:51:10.033Z,11.27
2022-08-17T19:54:04.363Z,9.50
2022-08-17T19:56:36.215Z,9.97
2022-08-17T19:59:09.483Z,9.30
2022-08-17T20:01:43.539Z,9.63
2022-08-17T20:04:13.209Z,8.77
2022-08-17T20:06:44.900Z,9.50
2022-08-17T20:09:15.435Z,9.30
2022-08-17T20:11:51.318Z,9.33
2022-08-17T20:14:23.334Z,10.70
2022-08-17T20:16:51.835Z,9.77
2022-08-17T20:19:24.712Z,10.50
2022-08-17T20:21:56.459Z,9.70
2022-08-17T20:24:27.273Z,9.27
2022-08-17T20:26:59.835Z,10.03
2022-08-17T20:29:39.815Z,10.07
2022-08-17T20:32:17.028Z,10.00
2022-08-17T20:34:46.864Z,10.13
2022-08-17T20:37:28.981Z,10.23
2022-08-17T20:40:14.925Z,9.87
2022-08-17T20:42:43.265Z,9.67
2022-08-17T20:45:30.079Z,10.03
2022-08-17T20:48:30.546Z,9.43
2022-08-17T20:50:50.655Z,9.93
2022-08-17T20:53:34.863Z,10.43
2022-08-17T20:56:05.283Z,10.70
2022-08-17T20:58:48.945Z,9.80
2022-08-17T21:01:20.279Z,10.63
2022-08-17T21:03:51.875Z,11.03
2022-08-17T21:06:21.750Z,10.87
2022-08-17T21:08:53.386Z,11.00
2022-08-17T21:11:58.194Z,10.40
2022-08-17T21:14:38.000Z,11.23
2022-08-17T21:17:33.415Z,10.30
2022-08-17T21:20:17.631Z,10.27
2022-08-17T21:22:51.319Z,10.63
2022-08-17T21:25:26.580Z,10.33
2022-08-17T21:27:59.798Z,10.83
2022-08-17T21:30:47.519Z,10.67
2022-08-17T21:33:20.391Z,11.17
2022-08-17T21:35:53.509Z,11.73
2022-08-17T21:38:34.733Z,11.27
2022-08-17T21:41:03.231Z,9.87
2022-08-17T21:43:33.428Z,10.57
2022-08-17T21:46:03.040Z,10.83
2022-08-17T21:48:32.381Z,11.60
2022-08-17T21:51:02.127Z,12.40
2022-08-17T21:53:33.358Z,11.20
2022-08-17T21:56:01.873Z,10.30
2022-08-17T21:58:31.174Z,10.30
2022-08-17T22:01:15.399Z,10.87
2022-08-17T22:03:48.804Z,9.70
2022-08-17T22:06:20.991Z,9.40
2022-08-17T22:08:58.973Z,9.60
2022-08-17T22:11:27.395Z,9.97
2022-08-17T22:14:05.123Z,9.87
2022-08-17T22:16:35.815Z,9.70
2022-08-17T22:19:04.368Z,9.77
2022-08-17T22:21:32.781Z,10.07
2022-08-17T22:24:04.000Z,9.47
2022-08-17T22:26:47.944Z,9.70
2022-08-17T22:29:31.155Z,10.97
2022-08-17T22:32:01.940Z,11.50
2022-08-17T22:34:30.364Z,11.17
2022-08-17T22:37:13.647Z,10.63
2022-08-17T22:39:42.119Z,10.93
2022-08-17T22:42:14.602Z,10.93
2022-08-17T22:44:47.990Z,10.70
2022-08-17T22:47:32.606Z,10.90
2022-08-17T22:50:01.273Z,11.07
2022-08-17T22:52:32.676Z,11.20
2022-08-17T22:55:23.221Z,11.40
2022-08-17T22:58:10.160Z,11.70
2022-08-17T23:00:39.685Z,10.17
2022-08-17T23:03:10.903Z,9.63
2022-08-17T23:05:39.747Z,10.37
2022-08-17T23:08:08.221Z,9.03
2022-08-17T23:10:37.430Z,8.17
2022-08-17T23:13:07.696Z,9.27
2022-08-17T23:15:37.253Z,8.87
2022-08-17T23:18:05.916Z,8.90
2022-08-17T23:20:36.480Z,9.03
2022-08-17T23:23:06.535Z,8.37
2022-08-17T23:25:35.842Z,7.73
2022-08-17T23:28:05.091Z,7.83
2022-08-17T23:30:34.471Z,7.10
2022-08-17T23:33:03.285Z,8.90
2022-08-17T23:35:39.249Z,7.80
2022-08-17T23:38:10.947Z,7.70
2022-08-17T23:40:39.928Z,6.97
2022-08-17T23:43:24.630Z,8.53
2022-08-17T23:45:55.110Z,7.67
2022-08-17T23:48:28.645Z,7.90
2022-08-17T23:51:05.845Z,7.77
2022-08-17T23:53:36.659Z,7.70
2022-08-17T23:56:10.063Z,7.77
2022-08-17T23:58:39.558Z,8.40
